createdAt,value
2023-01-17T00:02:07.597Z,78.45
2023-01-17T00:05:10.080Z,78.38
2023-01-17T00:07:55.490Z,78.16
2023-01-17T00:10:26.237Z,78.29
2023-01-17T00:12:56.229Z,78.43
2023-01-17T00:15:23.881Z,78.31
2023-01-17T00:17:51.884Z,78.17
2023-01-17T00:20:44.079Z,78.00
2023-01-17T00:23:33.722Z,78.22
2023-01-17T00:26:03.707Z,78.02
2023-01-17T00:28:37.180Z,78.02
2023-01-17T00:31:05.768Z,78.05
2023-01-17T00:33:33.093Z,78.31
2023-01-17T00:36:01.333Z,78.16
2023-01-17T00:38:30.960Z,78.21
2023-01-17T00:41:13.124Z,78.22
2023-01-17T00:43:58.695Z,78.07
2023-01-17T00:46:44.849Z,78.20
2023-01-17T00:49:30.420Z,78.14
2023-01-17T00:52:15.862Z,78.02
2023-01-17T00:55:01.651Z,78.26
2023-01-17T00:57:47.582Z,78.05
2023-01-17T01:00:33.985Z,77.88
2023-01-17T01:03:19.559Z,78.03
2023-01-17T01:06:05.529Z,78.10
2023-01-17T01:08:52.071Z,78.12
2023-01-17T01:11:40.074Z,77.95
2023-01-17T01:14:28.757Z,77.75
2023-01-17T01:17:14.032Z,77.73
2023-01-17T01:19:59.463Z,77.59
2023-01-17T01:22:45.063Z,77.28
2023-01-17T01:25:30.866Z,77.35
2023-01-17T01:28:29.316Z,77.02
2023-01-17T01:31:15.249Z,76.85
2023-01-17T01:33:42.426Z,77.07
2023-01-17T01:36:09.627Z,76.60
2023-01-17T01:38:36.933Z,76.87
2023-01-17T01:41:04.363Z,76.72
2023-01-17T01:43:43.731Z,76.36
2023-01-17T01:46:16.765Z,76.34
2023-01-17T01:49:16.795Z,76.41
2023-01-17T01:51:53.155Z,76.68
2023-01-17T01:54:26.211Z,76.43
2023-01-17T01:56:57.266Z,76.67
2023-01-17T01:59:24.988Z,76.13
2023-01-17T02:01:55.525Z,75.80
2023-01-17T02:04:23.363Z,76.07
2023-01-17T02:06:56.478Z,76.05
2023-01-17T02:09:23.947Z,75.84
2023-01-17T02:11:51.080Z,76.00
2023-01-17T02:14:19.816Z,76.05
2023-01-17T02:16:58.833Z,75.72
2023-01-17T02:20:04.331Z,75.42
2023-01-17T02:22:45.228Z,75.38
2023-01-17T02:25:24.712Z,75.64
2023-01-17T02:28:09.609Z,75.84
2023-01-17T02:31:02.483Z,75.96
2023-01-17T02:33:39.402Z,75.83
2023-01-17T02:36:32.087Z,75.79
2023-01-17T02:39:04.853Z,75.80
2023-01-17T02:41:37.096Z,75.69
2023-01-17T02:44:03.934Z,75.63
2023-01-17T02:46:31.054Z,75.80
2023-01-17T02:48:58.906Z,75.37
2023-01-17T02:51:39.172Z,75.36
2023-01-17T02:54:53.208Z,75.37
2023-01-17T02:58:13.292Z,75.37
2023-01-17T03:00:58.419Z,75.62
2023-01-17T03:03:35.164Z,75.50
2023-01-17T03:06:12.740Z,75.44
2023-01-17T03:08:43.401Z,75.31
2023-01-17T03:11:12.147Z,75.47
2023-01-17T03:13:39.290Z,75.42
2023-01-17T03:16:12.810Z,75.09
2023-01-17T03:18:42.492Z,75.09
2023-01-17T03:21:09.790Z,75.25
2023-01-17T03:23:37.000Z,75.13
2023-01-17T03:26:05.008Z,75.15
2023-01-17T03:28:31.799Z,74.67
2023-01-17T03:31:08.370Z,74.97
2023-01-17T03:33:38.054Z,74.67
2023-01-17T03:36:05.480Z,75.16
2023-01-17T03:38:32.285Z,74.88
2023-01-17T03:40:59.080Z,75.17
2023-01-17T03:43:25.787Z,75.41
2023-01-17T03:46:05.143Z,75.28
2023-01-17T03:48:32.580Z,75.58
2023-01-17T03:50:59.985Z,75.68
2023-01-17T03:53:26.942Z,75.62
2023-01-17T03:55:53.775Z,75.46
2023-01-17T03:58:20.568Z,75.09
2023-01-17T04:00:47.406Z,75.11
2023-01-17T04:03:14.466Z,75.45
2023-01-17T04:05:41.207Z,75.14
2023-01-17T04:08:07.964Z,75.04
2023-01-17T04:10:34.743Z,75.24
2023-01-17T04:13:01.503Z,74.96
2023-01-17T04:15:28.340Z,75.08
2023-01-17T04:17:55.558Z,75.05
2023-01-17T04:20:34.174Z,75.03
2023-01-17T04:23:01.491Z,74.90
2023-01-17T04:25:30.071Z,74.99
2023-01-17T04:28:01.276Z,75.02
2023-01-17T04:30:28.825Z,74.56
2023-01-17T04:32:55.825Z,74.55
2023-01-17T04:35:22.902Z,74.42
2023-01-17T04:37:50.030Z,74.23
2023-01-17T04:40:17.164Z,74.02
2023-01-17T04:42:47.596Z,74.06
2023-01-17T04:45:15.363Z,73.76
2023-01-17T04:47:42.173Z,73.88
2023-01-17T04:50:10.382Z,74.03
2023-01-17T04:52:37.301Z,74.36
2023-01-17T04:55:04.855Z,73.88
2023-01-17T04:57:31.669Z,73.68
2023-01-17T04:59:58.451Z,73.13
2023-01-17T05:02:25.246Z,72.88
2023-01-17T05:04:52.373Z,73.24
2023-01-17T05:07:19.172Z,72.94
2023-01-17T05:09:46.030Z,72.77
2023-01-17T05:12:12.801Z,73.07
2023-01-17T05:14:39.625Z,72.84
2023-01-17T05:17:06.614Z,72.63
2023-01-17T05:19:33.393Z,73.01
2023-01-17T05:22:04.342Z,72.47
2023-01-17T05:24:32.343Z,72.21
2023-01-17T05:27:03.292Z,72.38
2023-01-17T05:29:30.908Z,71.97
2023-01-17T05:31:57.893Z,72.15
2023-01-17T05:34:25.199Z,72.03
2023-01-17T05:36:52.006Z,71.83
2023-01-17T05:39:19.420Z,71.73
2023-01-17T05:41:46.470Z,71.15
2023-01-17T05:44:13.354Z,71.45
2023-01-17T05:46:40.359Z,71.41
2023-01-17T05:49:07.307Z,71.28
2023-01-17T05:51:37.856Z,71.07
2023-01-17T05:54:05.459Z,70.85
2023-01-17T05:56:32.482Z,71.05
2023-01-17T05:58:59.344Z,70.67
2023-01-17T06:01:26.308Z,70.58
2023-01-17T06:03:53.122Z,70.47
2023-01-17T06:06:19.916Z,70.20
2023-01-17T06:08:46.671Z,70.42
2023-01-17T06:11:13.702Z,70.52
2023-01-17T06:13:40.715Z,69.77
2023-01-17T06:16:07.966Z,69.80
2023-01-17T06:18:35.010Z,69.86
2023-01-17T06:21:01.885Z,70.14
2023-01-17T06:23:28.706Z,69.72
2023-01-17T06:25:55.452Z,69.83
2023-01-17T06:28:23.810Z,69.68
2023-01-17T06:30:50.868Z,69.90
2023-01-17T06:33:17.730Z,70.03
2023-01-17T06:35:51.995Z,69.97
2023-01-17T06:38:19.356Z,69.63
2023-01-17T06:40:46.216Z,69.83
2023-01-17T06:43:13.017Z,70.32
2023-01-17T06:45:39.811Z,70.02
2023-01-17T06:48:07.297Z,70.03
2023-01-17T06:50:34.942Z,70.02
2023-01-17T06:53:04.362Z,70.04
2023-01-17T06:55:33.899Z,70.35
2023-01-17T06:58:03.104Z,70.37
2023-01-17T07:00:31.666Z,70.26
2023-01-17T07:02:58.515Z,70.51
2023-01-17T07:05:25.724Z,70.59
2023-01-17T07:07:53.721Z,70.61
2023-01-17T07:10:21.303Z,70.52
2023-01-17T07:12:48.100Z,70.46
2023-01-17T07:15:15.026Z,70.75
2023-01-17T07:17:41.956Z,70.83
2023-01-17T07:20:09.469Z,70.82
2023-01-17T07:22:37.887Z,71.15
2023-01-17T07:25:05.367Z,71.41
2023-01-17T07:27:33.686Z,71.48
2023-01-17T07:30:00.666Z,71.45
2023-01-17T07:32:28.337Z,71.59
2023-01-17T07:34:57.661Z,71.54
2023-01-17T07:37:26.068Z,71.58
2023-01-17T07:39:53.160Z,71.74
2023-01-17T07:42:20.800Z,71.73
2023-01-17T07:44:48.479Z,71.33
2023-01-17T07:47:15.257Z,71.33
2023-01-17T07:49:42.064Z,71.23
2023-01-17T07:52:09.525Z,71.37
2023-01-17T07:54:36.364Z,71.26
2023-01-17T07:57:03.855Z,71.30
2023-01-17T07:59:30.768Z,71.37
2023-01-17T08:01:57.838Z,71.18
2023-01-17T08:04:28.855Z,71.35
2023-01-17T08:06:56.157Z,71.35
2023-01-17T08:09:23.051Z,71.14
2023-01-17T08:11:49.815Z,71.10
2023-01-17T08:14:16.566Z,71.20
2023-01-17T08:16:43.442Z,71.02
2023-01-17T08:19:10.537Z,71.13
2023-01-17T08:21:37.586Z,70.92
2023-01-17T08:24:04.904Z,70.88
2023-01-17T08:26:31.680Z,70.96
2023-01-17T08:29:03.289Z,70.59
2023-01-17T08:31:31.868Z,70.66
2023-01-17T08:33:58.764Z,70.86
2023-01-17T08:36:26.122Z,70.91
2023-01-17T08:38:53.564Z,70.71
2023-01-17T08:41:21.572Z,70.53
2023-01-17T08:43:49.449Z,70.82
2023-01-17T08:46:17.114Z,70.80
2023-01-17T08:48:44.321Z,70.49
2023-01-17T08:51:12.027Z,70.33
2023-01-17T08:53:38.920Z,70.39
2023-01-17T08:56:06.144Z,70.54
2023-01-17T08:58:33.352Z,70.41
2023-01-17T09:01:05.798Z,70.46
2023-01-17T09:03:34.139Z,69.98
2023-01-17T09:06:02.237Z,70.12
2023-01-17T09:08:29.073Z,70.07
2023-01-17T09:10:55.965Z,70.48
2023-01-17T09:13:22.873Z,70.50
2023-01-17T09:15:49.632Z,70.28
2023-01-17T09:18:16.354Z,70.09
2023-01-17T09:20:43.194Z,70.05
2023-01-17T09:23:10.042Z,70.10
2023-01-17T09:25:36.824Z,69.87
2023-01-17T09:28:03.677Z,69.60
2023-01-17T09:30:30.459Z,69.89
2023-01-17T09:32:57.211Z,69.79
2023-01-17T09:35:24.177Z,70.03
2023-01-17T09:37:51.686Z,69.92
2023-01-17T09:40:24.820Z,70.25
2023-01-17T09:42:58.206Z,70.11
2023-01-17T09:45:28.592Z,70.03
2023-01-17T09:47:56.494Z,70.13
2023-01-17T09:51:00.708Z,70.19
2023-01-17T09:53:31.439Z,69.43
2023-01-17T09:56:07.516Z,69.26
2023-01-17T09:58:40.161Z,69.17
2023-01-17T10:01:38.042Z,69.27
2023-01-17T10:04:23.054Z,69.49
2023-01-17T10:07:11.460Z,69.77
2023-01-17T10:09:46.332Z,69.82
2023-01-17T10:12:31.229Z,69.63
2023-01-17T10:15:25.739Z,69.94
2023-01-17T10:18:19.072Z,69.58
2023-01-17T10:21:05.007Z,69.56
2023-01-17T10:23:55.969Z,69.64
2023-01-17T10:26:25.740Z,69.60
2023-01-17T10:28:59.453Z,69.07
2023-01-17T10:31:31.160Z,68.80
2023-01-17T10:34:05.945Z,69.00
2023-01-17T10:36:39.707Z,69.03
2023-01-17T10:39:21.395Z,69.11
2023-01-17T10:41:55.488Z,68.88
2023-01-17T10:44:35.983Z,68.29
2023-01-17T10:47:11.635Z,68.00
2023-01-17T10:49:50.253Z,68.00
2023-01-17T10:52:35.116Z,67.70
2023-01-17T10:55:12.677Z,67.99
2023-01-17T10:57:42.767Z,68.08
2023-01-17T11:00:21.864Z,68.12
2023-01-17T11:02:51.011Z,68.17
2023-01-17T11:05:25.464Z,68.61
2023-01-17T11:08:07.416Z,69.23
2023-01-17T11:10:50.197Z,71.28
2023-01-17T11:13:28.826Z,73.87
2023-01-17T11:16:00.704Z,75.64
2023-01-17T11:18:31.760Z,77.13
2023-01-17T11:21:21.851Z,75.94
2023-01-17T11:23:56.822Z,75.43
2023-01-17T11:26:29.086Z,76.14
2023-01-17T11:29:34.649Z,73.80
2023-01-17T11:32:21.116Z,72.37
2023-01-17T11:35:15.344Z,71.71
2023-01-17T11:37:48.933Z,69.67
2023-01-17T11:40:19.450Z,68.73
2023-01-17T11:42:46.217Z,68.81
2023-01-17T11:45:33.942Z,67.40
2023-01-17T11:48:16.264Z,64.97
2023-01-17T11:50:58.288Z,63.89
2023-01-17T11:53:29.055Z,61.97
2023-01-17T11:56:01.831Z,61.87
2023-01-17T11:58:29.247Z,63.00
2023-01-17T12:01:02.497Z,62.21
2023-01-17T12:03:40.222Z,62.65
2023-01-17T12:06:13.889Z,62.46
2023-01-17T12:08:52.764Z,61.85
2023-01-17T12:11:36.123Z,61.01
2023-01-17T12:14:39.013Z,63.15
2023-01-17T12:17:30.818Z,64.79
2023-01-17T12:20:05.721Z,67.56
2023-01-17T12:22:50.733Z,68.24
2023-01-17T12:25:26.789Z,68.85
2023-01-17T12:28:23.276Z,68.85
2023-01-17T12:31:01.909Z,66.21
2023-01-17T12:34:21.758Z,66.65
2023-01-17T12:36:56.571Z,65.95
2023-01-17T12:39:29.068Z,65.36
2023-01-17T12:42:13.668Z,63.51
2023-01-17T12:44:58.438Z,63.28
2023-01-17T12:47:25.725Z,62.06
2023-01-17T12:50:00.875Z,60.84
2023-01-17T12:52:45.485Z,59.94
2023-01-17T12:55:20.304Z,59.63
2023-01-17T12:57:57.221Z,59.62
2023-01-17T13:00:26.868Z,59.80
2023-01-17T13:03:07.824Z,59.97
2023-01-17T13:05:41.925Z,61.44
2023-01-17T13:08:35.587Z,62.85
2023-01-17T13:11:28.689Z,62.98
2023-01-17T13:13:57.637Z,64.80
2023-01-17T13:16:33.963Z,65.42
2023-01-17T13:19:20.117Z,65.12
2023-01-17T13:21:49.071Z,63.25
2023-01-17T13:24:24.847Z,61.18
2023-01-17T13:27:13.864Z,59.88
2023-01-17T13:29:56.880Z,59.63
2023-01-17T13:32:42.140Z,59.11
2023-01-17T13:35:37.246Z,58.77
2023-01-17T13:38:39.321Z,59.24
2023-01-17T13:41:13.882Z,59.38
2023-01-17T13:44:03.335Z,58.79
2023-01-17T13:46:31.459Z,58.96
2023-01-17T13:49:45.888Z,59.12
2023-01-17T13:52:18.556Z,58.86
2023-01-17T13:54:51.056Z,58.86
2023-01-17T13:57:24.711Z,58.99
2023-01-17T13:59:58.896Z,59.15
2023-01-17T14:02:31.753Z,59.07
2023-01-17T14:05:23.580Z,59.23
2023-01-17T14:08:02.102Z,59.35
2023-01-17T14:10:41.227Z,59.55
2023-01-17T14:13:37.210Z,59.82
2023-01-17T14:16:24.303Z,59.49
2023-01-17T14:18:52.973Z,59.53
2023-01-17T14:21:28.625Z,59.60
2023-01-17T14:24:15.468Z,59.78
2023-01-17T14:26:45.899Z,59.53
2023-01-17T14:29:49.296Z,59.75
2023-01-17T14:32:20.062Z,59.58
2023-01-17T14:34:50.192Z,59.85
2023-01-17T14:37:22.720Z,59.73
2023-01-17T14:39:50.918Z,59.52
2023-01-17T14:42:22.540Z,59.34
2023-01-17T14:44:53.045Z,59.29
2023-01-17T14:47:20.237Z,59.48
2023-01-17T14:49:47.040Z,59.39
2023-01-17T14:52:18.188Z,59.51
2023-01-17T14:54:52.857Z,59.59
2023-01-17T14:57:26.752Z,59.93
2023-01-17T15:00:11.229Z,60.13
2023-01-17T15:02:43.878Z,60.04
2023-01-17T15:05:15.864Z,60.00
2023-01-17T15:07:49.632Z,60.51
2023-01-17T15:10:23.390Z,60.68
2023-01-17T15:12:52.752Z,60.90
2023-01-17T15:15:28.051Z,61.03
2023-01-17T15:18:13.353Z,61.09
2023-01-17T15:20:43.580Z,61.22
2023-01-17T15:23:19.778Z,61.46
2023-01-17T15:25:52.253Z,61.52
2023-01-17T15:28:19.253Z,61.66
2023-01-17T15:31:04.461Z,62.06
2023-01-17T15:33:35.722Z,61.91
2023-01-17T15:36:09.369Z,62.32
2023-01-17T15:38:39.545Z,62.32
2023-01-17T15:41:13.676Z,62.69
2023-01-17T15:43:41.760Z,62.50
2023-01-17T15:46:23.166Z,63.00
2023-01-17T15:48:51.881Z,62.89
2023-01-17T15:51:38.790Z,63.05
2023-01-17T15:54:25.052Z,63.12
2023-01-17T15:57:36.805Z,63.11
2023-01-17T16:00:20.809Z,63.36
2023-01-17T16:02:56.236Z,63.32
2023-01-17T16:05:23.465Z,63.29
2023-01-17T16:08:17.677Z,63.37
2023-01-17T16:10:44.728Z,63.73
2023-01-17T16:13:13.689Z,63.73
2023-01-17T16:15:41.526Z,63.83
2023-01-17T16:18:15.022Z,63.98
2023-01-17T16:20:48.225Z,64.06
2023-01-17T16:23:15.086Z,63.99
2023-01-17T16:25:41.825Z,63.99
2023-01-17T16:28:08.672Z,64.19
2023-01-17T16:30:36.152Z,64.14
2023-01-17T16:33:03.478Z,64.36
2023-01-17T16:35:33.243Z,64.37
2023-01-17T16:38:03.508Z,64.31
2023-01-17T16:40:33.064Z,64.57
2023-01-17T16:43:01.021Z,64.44
2023-01-17T16:45:27.861Z,64.65
2023-01-17T16:47:54.719Z,64.81
2023-01-17T16:50:24.499Z,64.66
2023-01-17T16:52:52.889Z,64.84
2023-01-17T16:55:22.188Z,64.99
2023-01-17T16:57:50.012Z,65.27
2023-01-17T17:00:18.205Z,65.15
2023-01-17T17:02:45.016Z,65.29
2023-01-17T17:05:11.873Z,65.21
2023-01-17T17:07:46.430Z,65.28
2023-01-17T17:10:16.293Z,65.29
2023-01-17T17:12:43.567Z,65.28
2023-01-17T17:15:11.699Z,65.07
2023-01-17T17:17:48.948Z,65.19
2023-01-17T17:20:15.997Z,65.23
2023-01-17T17:22:44.318Z,65.21
2023-01-17T17:25:12.228Z,65.37
2023-01-17T17:27:39.097Z,65.24
2023-01-17T17:30:06.612Z,65.30
2023-01-17T17:32:33.685Z,65.41
2023-01-17T17:35:00.797Z,65.50
2023-01-17T17:37:30.522Z,65.36
2023-01-17T17:39:57.788Z,65.74
2023-01-17T17:42:24.770Z,65.84
2023-01-17T17:44:51.596Z,65.62
2023-01-17T17:47:18.382Z,65.92
2023-01-17T17:49:45.289Z,65.87
2023-01-17T17:52:12.116Z,65.99
2023-01-17T17:54:38.891Z,65.92
2023-01-17T17:57:06.621Z,65.91
2023-01-17T17:59:33.646Z,66.12
2023-01-17T18:02:00.534Z,65.88
2023-01-17T18:04:27.635Z,66.10
2023-01-17T18:06:58.198Z,65.93
2023-01-17T18:09:25.181Z,66.17
2023-01-17T18:11:52.087Z,66.07
2023-01-17T18:14:21.281Z,66.14
2023-01-17T18:16:50.889Z,66.17
2023-01-17T18:19:23.985Z,66.26
2023-01-17T18:21:52.492Z,66.36
2023-01-17T18:24:22.376Z,66.41
2023-01-17T18:26:56.060Z,66.46
2023-01-17T18:29:24.116Z,66.48
2023-01-17T18:31:52.734Z,66.75
2023-01-17T18:34:24.192Z,66.77
2023-01-17T18:36:51.943Z,66.70
2023-01-17T18:39:24.702Z,66.93
2023-01-17T18:41:51.892Z,67.06
2023-01-17T18:44:21.955Z,67.07
2023-01-17T18:46:54.136Z,67.17
2023-01-17T18:49:21.176Z,66.83
2023-01-17T18:51:51.317Z,66.85
2023-01-17T18:54:20.417Z,66.88
2023-01-17T18:56:48.079Z,66.83
2023-01-17T18:59:18.425Z,66.84
2023-01-17T19:01:46.182Z,66.99
2023-01-17T19:04:14.803Z,66.90
2023-01-17T19:06:43.709Z,66.92
2023-01-17T19:09:12.053Z,66.93
2023-01-17T19:11:39.386Z,67.09
2023-01-17T19:14:07.160Z,66.95
2023-01-17T19:16:39.209Z,67.03
2023-01-17T19:19:09.325Z,66.94
2023-01-17T19:21:36.589Z,66.83
2023-01-17T19:24:03.600Z,66.97
2023-01-17T19:26:30.669Z,66.80
2023-01-17T19:29:03.839Z,66.85
2023-01-17T19:31:32.787Z,66.95
2023-01-17T19:34:00.342Z,66.94
2023-01-17T19:36:35.810Z,67.13
2023-01-17T19:39:06.766Z,67.21
2023-01-17T19:41:35.490Z,67.26
2023-01-17T19:44:05.628Z,67.11
2023-01-17T19:46:33.587Z,67.14
2023-01-17T19:49:00.808Z,67.32
2023-01-17T19:51:28.213Z,67.25
2023-01-17T19:53:55.467Z,67.23
2023-01-17T19:56:25.326Z,67.15
2023-01-17T19:58:52.521Z,67.32
2023-01-17T20:01:25.384Z,67.41
2023-01-17T20:03:53.861Z,67.17
2023-01-17T20:06:24.086Z,67.23
2023-01-17T20:08:51.186Z,67.05
2023-01-17T20:11:20.920Z,66.90
2023-01-17T20:13:49.405Z,67.13
2023-01-17T20:16:18.155Z,66.92
2023-01-17T20:18:45.772Z,66.83
2023-01-17T20:21:18.934Z,66.67
2023-01-17T20:23:48.202Z,66.42
2023-01-17T20:26:17.603Z,66.67
2023-01-17T20:28:46.215Z,66.52
2023-01-17T20:31:16.517Z,66.31
2023-01-17T20:33:44.769Z,66.18
2023-01-17T20:36:15.026Z,66.15
2023-01-17T20:38:46.083Z,66.11
2023-01-17T20:41:15.948Z,65.83
2023-01-17T20:43:44.554Z,65.99
2023-01-17T20:46:12.126Z,66.00
2023-01-17T20:48:45.106Z,65.77
2023-01-17T20:51:12.913Z,65.86
2023-01-17T20:53:42.068Z,65.58
2023-01-17T20:56:09.730Z,65.71
2023-01-17T20:58:36.718Z,65.66
2023-01-17T21:01:03.902Z,65.44
2023-01-17T21:03:31.733Z,65.54
2023-01-17T21:06:03.789Z,65.39
2023-01-17T21:08:36.381Z,65.43
2023-01-17T21:11:04.037Z,65.55
2023-01-17T21:13:31.833Z,65.21
2023-01-17T21:15:59.223Z,65.29
2023-01-17T21:18:27.683Z,65.13
2023-01-17T21:20:54.541Z,65.07
2023-01-17T21:23:23.577Z,65.03
2023-01-17T21:25:55.673Z,64.94
2023-01-17T21:28:25.086Z,65.12
2023-01-17T21:30:53.544Z,65.18
2023-01-17T21:33:22.056Z,65.06
2023-01-17T21:35:49.355Z,65.22
2023-01-17T21:38:16.564Z,65.10
2023-01-17T21:40:44.135Z,65.10
2023-01-17T21:43:12.202Z,65.01
2023-01-17T21:45:40.006Z,65.18
2023-01-17T21:48:12.248Z,65.20
2023-01-17T21:50:39.481Z,65.17
2023-01-17T21:53:07.947Z,65.30
2023-01-17T21:55:53.276Z,65.30
2023-01-17T21:58:38.789Z,65.05
2023-01-17T22:01:16.149Z,65.26
2023-01-17T22:03:48.568Z,65.15
2023-01-17T22:06:18.465Z,65.30
2023-01-17T22:08:45.768Z,65.32
2023-01-17T22:11:19.607Z,65.56
2023-01-17T22:13:47.468Z,65.66
2023-01-17T22:16:22.708Z,65.33
2023-01-17T22:18:50.984Z,65.48
2023-01-17T22:21:28.685Z,65.71
2023-01-17T22:24:00.115Z,65.45
2023-01-17T22:26:32.724Z,65.69
2023-01-17T22:29:01.284Z,65.32
2023-01-17T22:31:29.298Z,65.41
2023-01-17T22:34:02.640Z,65.61
2023-01-17T22:36:32.989Z,65.46
2023-01-17T22:39:00.121Z,65.55
2023-01-17T22:41:29.982Z,65.37
2023-01-17T22:43:59.962Z,65.30
2023-01-17T22:46:31.517Z,65.31
2023-01-17T22:48:59.210Z,65.17
2023-01-17T22:51:29.206Z,64.95
2023-01-17T22:54:01.313Z,65.27
2023-01-17T22:56:33.595Z,65.37
2023-01-17T22:59:01.985Z,65.31
2023-01-17T23:01:31.263Z,65.39
2023-01-17T23:04:02.091Z,65.54
2023-01-17T23:06:38.252Z,65.45
2023-01-17T23:09:11.628Z,65.28
2023-01-17T23:11:47.801Z,65.33
2023-01-17T23:14:28.831Z,65.45
2023-01-17T23:17:18.950Z,65.40
2023-01-17T23:19:48.414Z,65.36
2023-01-17T23:22:19.540Z,65.37
2023-01-17T23:25:09.388Z,65.52
2023-01-17T23:27:59.539Z,65.41
2023-01-17T23:30:52.904Z,65.26
2023-01-17T23:33:20.033Z,65.44
2023-01-17T23:35:48.021Z,65.35
2023-01-17T23:38:32.102Z,65.15
2023-01-17T23:41:26.872Z,65.19
2023-01-17T23:43:56.193Z,65.22
2023-01-17T23:46:28.052Z,65.21
2023-01-17T23:48:56.455Z,65.40
2023-01-17T23:51:25.051Z,65.16
2023-01-17T23:53:57.600Z,65.04
2023-01-17T23:56:25.236Z,65.08
2023-01-17T23:58:53.712Z,65.12
